Time;durP1;ratioP1;P1;durP2;ratioP2;P2;SDS_P1;SDS_P2;PMS_P1;PMS_P2;Temp;Humidity;BMP_temperature;BMP_pressure;BME280_temperature;BME280_humidity;BME280_pressure;Samples;Min_cycle;Max_cycle;Signal;HPM_P1;HPM_P2
2022/10/31 00:01:18;;;;;;;15.80;10.10;;;8.70;99.90;7.90;100663;;;;582834;246;24134;-83
2022/10/31 00:03:50;;;;;;;14.90;9.53;;;8.80;99.90;7.90;100664;;;;574167;246;24151;-82
2022/10/31 00:06:17;;;;;;;15.53;9.13;;;8.80;99.90;7.90;100668;;;;573798;246;24220;-82
2022/10/31 00:08:44;;;;;;;15.13;10.43;;;8.80;99.90;8.00;100664;;;;584028;241;24006;-83
2022/10/31 00:11:10;;;;;;;13.97;9.40;;;8.80;99.90;8.00;100663;;;;584297;241;24098;-83
2022/10/31 00:13:41;;;;;;;17.90;10.10;;;8.80;99.90;8.00;100657;;;;584148;241;24044;-83
2022/10/31 00:16:06;;;;;;;14.70;9.73;;;8.80;99.90;8.00;100655;;;;572883;246;24196;-80
2022/10/31 00:18:34;;;;;;;15.83;9.93;;;8.80;99.90;8.00;100658;;;;572264;246;24108;-82
2022/10/31 00:21:02;;;;;;;16.87;11.10;;;8.80;99.90;8.00;100657;;;;572767;246;24095;-81
2022/10/31 00:23:33;;;;;;;18.53;11.43;;;8.80;99.90;8.10;100661;;;;573132;246;24144;-82
2022/10/31 00:26:08;;;;;;;20.50;12.37;;;8.90;99.90;8.00;100664;;;;573066;246;24110;-81
2022/10/31 00:28:32;;;;;;;21.77;13.67;;;8.90;99.90;8.00;100661;;;;582019;246;24098;-82
2022/10/31 00:31:02;;;;;;;26.47;14.07;;;8.80;99.90;8.00;100666;;;;584065;241;24082;-83
2022/10/31 00:33:30;;;;;;;24.10;14.07;;;8.80;99.90;8.10;100667;;;;573057;246;24195;-82
2022/10/31 00:35:58;;;;;;;27.43;15.57;;;8.80;99.90;8.10;100665;;;;574527;245;24157;-81
2022/10/31 00:38:26;;;;;;;30.63;16.50;;;8.90;99.90;8.10;100660;;;;574791;245;24108;-82
2022/10/31 00:40:57;;;;;;;30.13;15.03;;;8.90;99.90;8.10;100664;;;;574473;245;24111;-82
2022/10/31 00:43:25;;;;;;;28.93;14.77;;;8.90;99.90;8.10;100663;;;;584801;241;24030;-82
2022/10/31 00:45:50;;;;;;;29.30;16.20;;;8.90;99.90;8.20;100665;;;;573829;246;24108;-81
2022/10/31 00:48:18;;;;;;;42.40;26.58;;;8.90;99.90;8.20;100663;;;;588214;241;35145;-82
2022/10/31 00:50:46;;;;;;;44.40;21.27;;;9.00;99.90;8.20;100669;;;;576969;244;24069;-82
2022/10/31 00:53:14;;;;;;;38.00;19.33;;;9.00;99.90;8.20;100669;;;;584061;241;23979;-82
2022/10/31 00:55:45;;;;;;;33.33;18.70;;;9.00;99.90;8.20;100674;;;;572875;246;24115;-81
2022/10/31 00:58:10;;;;;;;32.50;18.03;;;9.00;99.90;8.10;100671;;;;583586;241;24026;-81
2022/10/31 01:00:37;;;;;;;29.93;16.93;;;9.00;99.90;8.10;100674;;;;584029;241;24073;-82
2022/10/31 01:03:05;;;;;;;35.03;18.07;;;8.90;99.90;8.10;100669;;;;584024;241;23979;-82
2022/10/31 01:05:33;;;;;;;32.77;18.13;;;8.90;99.90;8.10;100675;;;;573317;246;24101;-83
2022/10/31 01:08:02;;;;;;;32.50;17.13;;;8.90;99.90;8.10;100679;;;;584043;241;23971;-83
2022/10/31 01:10:30;;;;;;;37.57;18.43;;;8.90;99.90;8.10;100681;;;;583910;241;24094;-82
2022/10/31 01:12:58;;;;;;;33.77;16.93;;;8.90;99.90;8.10;100677;;;;573345;246;24108;-82
2022/10/31 01:15:26;;;;;;;28.33;16.40;;;8.90;99.90;8.00;100687;;;;573209;246;24078;-81
2022/10/31 01:17:54;;;;;;;29.00;17.10;;;8.80;99.90;8.00;100685;;;;583819;241;25028;-82
2022/10/31 01:20:25;;;;;;;27.47;15.67;;;8.80;99.90;8.00;100690;;;;572219;246;24118;-82
2022/10/31 01:22:50;;;;;;;34.10;16.53;;;8.80;99.90;7.90;100692;;;;583432;241;24030;-81
2022/10/31 01:25:18;;;;;;;31.83;15.73;;;8.80;99.90;7.90;100690;;;;572235;246;24133;-82
2022/10/31 01:27:46;;;;;;;31.57;15.93;;;8.70;99.90;7.90;100696;;;;583648;241;24024;-82
2022/10/31 01:30:15;;;;;;;38.77;16.40;;;8.70;99.90;7.90;100696;;;;572587;246;24098;-81
2022/10/31 01:32:43;;;;;;;27.63;14.67;;;8.80;99.90;8.00;100685;;;;572859;246;24157;-82
2022/10/31 01:35:12;;;;;;;36.33;14.63;;;8.90;99.90;8.10;100679;;;;573606;246;24095;-81
2022/10/31 01:37:40;;;;;;;31.80;14.00;;;8.80;99.90;8.30;100680;;;;573572;246;24108;-82
2022/10/31 01:40:12;;;;;;;37.20;15.27;;;9.00;99.90;8.50;100683;;;;584103;241;23968;-82
2022/10/31 01:42:36;;;;;;;35.87;14.97;;;9.20;99.90;8.70;100690;;;;583900;241;24058;-82
2022/10/31 01:45:08;;;;;;;35.53;14.90;;;9.60;99.90;8.90;100694;;;;583795;241;24018;-82
2022/10/31 01:47:41;;;;;;;40.67;15.07;;;9.60;99.90;9.00;100691;;;;595972;238;24091;-82
2022/10/31 01:50:24;;;;;;;47.80;15.83;;;9.80;99.90;9.20;100699;;;;584484;241;23987;-81
2022/10/31 01:52:52;;;;;;;38.77;13.83;;;10.00;99.90;9.40;100689;;;;584019;241;24067;-82
2022/10/31 01:55:37;;;;;;;58.43;15.63;;;10.30;99.90;9.60;100680;;;;584462;241;24003;-83
2022/10/31 01:58:10;;;;;;;45.60;13.43;;;10.20;99.90;9.70;100690;;;;583588;236;24086;-82
2022/10/31 02:00:38;;;;;;;35.50;13.60;;;10.50;99.90;9.80;100686;;;;584053;241;23971;-83
2022/10/31 02:03:06;;;;;;;48.30;14.13;;;10.60;99.90;10.00;100694;;;;573214;246;24135;-82
2022/10/31 02:05:34;;;;;;;68.53;15.93;;;10.70;99.90;10.10;100691;;;;584081;241;24016;-82
2022/10/31 02:08:14;;;;;;;71.87;16.00;;;10.80;99.90;10.20;100694;;;;583943;241;25142;-82
2022/10/31 02:10:46;;;;;;;65.57;15.87;;;10.90;99.90;10.30;100697;;;;583750;241;24134;-82
2022/10/31 02:13:10;;;;;;;53.23;15.90;;;11.00;99.90;10.40;100709;;;;573079;246;24087;-82
2022/10/31 02:15:41;;;;;;;66.27;16.93;;;11.10;99.90;10.50;100701;;;;583955;241;24092;-83
2022/10/31 02:18:06;;;;;;;77.90;17.23;;;11.20;99.90;10.60;100691;;;;583676;241;24143;-83
2022/10/31 02:20:34;;;;;;;121.47;17.93;;;11.30;99.90;10.60;100701;;;;594211;241;24071;-83
2022/10/31 02:23:42;;;;;;;86.67;17.37;;;11.40;99.90;10.70;100700;;;;577674;241;24123;-82
2022/10/31 02:26:50;;;;;;;61.33;16.07;;;11.40;99.90;10.80;100701;;;;583913;241;24057;-83
2022/10/31 02:29:45;;;;;;;108.20;19.30;;;11.50;99.90;10.80;100702;;;;573634;246;24089;-82
2022/10/31 02:32:25;;;;;;;99.27;18.43;;;11.50;99.90;10.90;100691;;;;573938;246;24148;-82
2022/10/31 02:35:16;;;;;;;128.43;20.30;;;11.60;99.90;10.90;100697;;;;582792;245;24096;-82
2022/10/31 02:38:05;;;;;;;103.23;18.97;;;11.60;99.90;10.90;100698;;;;584814;241;24053;-81
2022/10/31 02:40:38;;;;;;;113.23;19.90;;;11.60;99.90;10.90;100704;;;;573677;246;24094;-83
2022/10/31 02:43:09;;;;;;;65.83;18.67;;;11.60;99.90;10.70;100712;;;;585830;240;24081;-83
2022/10/31 02:45:49;;;;;;;79.10;19.87;;;11.40;99.90;10.50;100707;;;;589382;243;24078;-82
2022/10/31 02:48:20;;;;;;;57.10;18.37;;;11.30;99.90;10.30;100716;;;;584292;241;25020;-82
2022/10/31 02:50:53;;;;;;;66.10;19.90;;;11.10;99.90;10.30;100708;;;;584196;241;24047;-83
2022/10/31 02:53:21;;;;;;;63.97;22.33;;;11.00;99.90;10.20;100717;;;;586288;241;24008;-83
2022/10/31 02:56:02;;;;;;;48.33;18.17;;;10.90;99.90;10.10;100722;;;;572522;246;24129;-82
2022/10/31 02:58:30;;;;;;;48.57;20.77;;;10.90;99.90;10.00;100716;;;;579652;245;24090;-83
2022/10/31 03:01:28;;;;;;;70.03;21.97;;;10.70;99.90;9.90;100730;;;;584827;241;24071;-82
2022/10/31 03:04:16;;;;;;;64.03;22.23;;;10.70;99.90;9.90;100720;;;;580670;245;24102;-83
2022/10/31 03:06:59;;;;;;;48.43;20.37;;;10.60;99.90;9.80;100723;;;;586443;239;23973;-82
2022/10/31 03:10:08;;;;;;;53.33;21.00;;;10.50;99.90;9.80;100727;;;;583952;241;24146;-83
2022/10/31 03:12:40;;;;;;;48.37;20.93;;;10.50;99.90;9.80;100731;;;;590972;237;23967;-82
2022/10/31 03:15:15;;;;;;;51.80;19.43;;;10.50;99.90;9.70;100719;;;;584282;241;24118;-82
2022/10/31 03:17:57;;;;;;;61.87;20.27;;;10.40;99.90;9.70;100725;;;;573365;246;24171;-82
2022/10/31 03:20:25;;;;;;;52.80;18.67;;;10.40;99.90;9.60;100726;;;;568076;246;24102;-81
2022/10/31 03:22:55;;;;;;;56.20;19.73;;;10.40;99.90;9.60;100735;;;;585008;241;24041;-82
2022/10/31 03:25:27;;;;;;;58.53;21.40;;;10.30;99.90;9.60;100723;;;;585622;241;24073;-82
2022/10/31 03:27:51;;;;;;;63.93;20.10;;;10.30;99.90;9.50;100742;;;;585173;241;24063;-81
2022/10/31 03:30:22;;;;;;;50.73;20.40;;;10.30;99.90;9.50;100737;;;;585646;241;24092;-83
2022/10/31 03:32:49;;;;;;;63.67;21.40;;;10.20;99.90;9.50;100740;;;;585311;241;24105;-82
2022/10/31 03:35:17;;;;;;;59.20;20.20;;;10.20;99.90;9.40;100744;;;;584981;241;24104;-82
2022/10/31 03:37:45;;;;;;;50.43;21.10;;;10.10;99.90;9.30;100749;;;;585153;241;24092;-81
2022/10/31 03:40:13;;;;;;;62.77;22.63;;;10.00;99.90;9.30;100746;;;;585031;241;24133;-83
2022/10/31 03:42:41;;;;;;;75.47;24.80;;;10.00;99.90;9.20;100743;;;;584682;241;24059;-83
2022/10/31 03:45:13;;;;;;;61.57;23.37;;;9.80;99.90;9.10;100729;;;;584892;241;24067;-83
2022/10/31 03:47:41;;;;;;;54.23;20.17;;;9.80;99.90;9.00;100734;;;;584527;241;24077;-81
2022/10/31 03:50:09;;;;;;;56.33;20.17;;;9.60;99.90;8.90;100731;;;;584880;241;24078;-84
2022/10/31 03:52:38;;;;;;;73.60;22.47;;;9.50;99.90;8.80;100740;;;;584913;241;24168;-83
2022/10/31 03:55:07;;;;;;;68.30;22.10;;;9.50;99.90;8.70;100738;;;;584606;241;24145;-82
2022/10/31 03:57:35;;;;;;;77.40;24.30;;;9.40;99.90;8.60;100733;;;;584426;241;24090;-82
2022/10/31 04:00:05;;;;;;;78.43;23.63;;;9.40;99.90;8.60;100739;;;;583192;237;24112;-83
2022/10/31 04:02:33;;;;;;;134.60;36.97;;;9.30;99.90;8.50;100733;;;;579085;241;35115;-82
2022/10/31 04:05:05;;;;;;;98.63;26.00;;;9.20;99.90;8.40;100735;;;;584590;241;24141;-82
2022/10/31 04:07:29;;;;;;;75.20;22.87;;;9.20;99.90;8.40;100737;;;;584731;241;24063;-82
2022/10/31 04:10:01;;;;;;;60.00;18.23;;;9.10;99.90;8.30;100733;;;;585210;240;24166;-82
2022/10/31 04:12:26;;;;;;;81.70;19.70;;;9.00;99.90;8.20;100745;;;;585664;236;24104;-82
2022/10/31 04:14:54;;;;;;;66.10;19.57;;;9.00;99.90;8.20;100733;;;;585940;241;24063;-81
2022/10/31 04:17:25;;;;;;;60.77;20.27;;;8.90;99.90;8.10;100737;;;;585655;241;24084;-82
2022/10/31 04:19:50;;;;;;;57.67;18.40;;;8.90;99.90;8.00;100733;;;;585187;241;24078;-82
2022/10/31 04:22:18;;;;;;;72.10;18.73;;;8.80;99.90;8.00;100729;;;;585669;241;24052;-82
2022/10/31 04:24:46;;;;;;;53.77;19.77;;;8.70;99.90;7.90;100731;;;;585626;241;24099;-83
2022/10/31 04:27:15;;;;;;;66.07;20.43;;;8.70;99.90;7.90;100725;;;;585650;241;24066;-83
2022/10/31 04:29:43;;;;;;;44.47;17.87;;;8.70;99.90;7.90;100726;;;;585526;241;24074;-85
2022/10/31 04:32:11;;;;;;;38.83;17.23;;;8.70;99.90;7.90;100729;;;;585188;241;24073;-84
2022/10/31 04:34:39;;;;;;;53.13;17.80;;;8.70;99.90;7.90;100729;;;;585556;241;24082;-81
2022/10/31 04:37:07;;;;;;;54.53;20.53;;;8.60;99.90;7.90;100720;;;;585637;241;24056;-82
2022/10/31 04:39:38;;;;;;;39.13;16.17;;;8.60;99.90;7.90;100719;;;;585509;241;24109;-83
2022/10/31 04:42:03;;;;;;;59.53;19.67;;;8.70;99.90;7.90;100717;;;;585316;241;24129;-83
2022/10/31 04:44:30;;;;;;;66.27;20.40;;;8.70;99.90;7.90;100726;;;;585500;241;24110;-81
2022/10/31 04:46:58;;;;;;;54.70;18.77;;;8.70;99.90;7.90;100726;;;;585239;241;24072;-82
2022/10/31 04:49:26;;;;;;;34.43;19.13;;;8.70;99.90;8.00;100725;;;;585203;241;24105;-81
2022/10/31 04:51:54;;;;;;;44.33;21.43;;;8.70;99.90;8.00;100719;;;;585340;241;24068;-83
2022/10/31 04:54:22;;;;;;;44.20;20.53;;;8.80;99.90;8.10;100719;;;;585304;241;24134;-81
2022/10/31 04:56:51;;;;;;;52.07;22.10;;;8.90;99.90;8.10;100711;;;;594826;238;24072;-82
2022/10/31 04:59:19;;;;;;;54.27;21.57;;;8.80;99.90;8.20;100716;;;;584736;241;25140;-83
2022/10/31 05:01:47;;;;;;;46.10;21.40;;;8.90;99.90;8.20;100725;;;;584871;241;24082;-82
2022/10/31 05:04:15;;;;;;;50.13;23.37;;;8.90;99.90;8.20;100719;;;;584818;241;24071;-83
2022/10/31 05:06:42;;;;;;;47.20;23.43;;;9.00;99.90;8.30;100719;;;;584881;241;24069;-82
2022/10/31 05:09:10;;;;;;;43.73;21.50;;;9.00;99.90;8.30;100716;;;;584854;241;24059;-82
2022/10/31 05:11:39;;;;;;;53.83;23.03;;;9.10;99.90;8.40;100711;;;;584951;241;24058;-82
2022/10/31 05:14:07;;;;;;;61.10;24.43;;;9.10;99.90;8.40;100718;;;;584859;241;24068;-82
2022/10/31 05:16:35;;;;;;;55.20;22.60;;;9.10;99.90;8.50;100719;;;;584755;241;24056;-82
2022/10/31 05:19:03;;;;;;;52.53;21.63;;;9.20;99.90;8.50;100719;;;;585539;241;24115;-83
2022/10/31 05:21:31;;;;;;;71.37;23.50;;;9.20;99.90;8.60;100717;;;;585745;240;24070;-84
2022/10/31 05:23:59;;;;;;;65.83;24.40;;;9.30;99.90;8.60;100707;;;;586507;240;24066;-83
2022/10/31 05:26:27;;;;;;;64.57;24.10;;;9.30;99.90;8.70;100713;;;;585987;241;24102;-83
2022/10/31 05:28:54;;;;;;;53.93;24.57;;;9.40;99.90;8.70;100712;;;;586057;241;24065;-83
2022/10/31 05:31:26;;;;;;;54.00;25.93;;;9.40;99.90;8.70;100711;;;;585494;241;24083;-83
2022/10/31 05:33:51;;;;;;;58.20;26.03;;;9.50;99.90;8.80;100709;;;;585167;241;24124;-83
2022/10/31 05:36:19;;;;;;;64.23;25.70;;;9.50;99.90;8.80;100710;;;;585687;241;24048;-82
2022/10/31 05:38:47;;;;;;;60.10;25.60;;;9.50;99.90;8.80;100719;;;;585731;241;24090;-84
2022/10/31 05:41:15;;;;;;;51.30;25.33;;;9.60;99.90;8.90;100715;;;;585505;241;24050;-82
2022/10/31 05:43:43;;;;;;;60.67;23.23;;;9.60;99.90;9.00;100711;;;;585476;241;24081;-82
2022/10/31 05:46:11;;;;;;;54.13;24.27;;;9.70;99.90;9.00;100705;;;;584737;240;24167;-79
2022/10/31 05:48:39;;;;;;;66.20;24.83;;;9.70;99.90;9.10;100714;;;;588323;242;24126;-79
2022/10/31 05:51:08;;;;;;;62.80;24.20;;;9.80;99.90;9.10;100721;;;;585030;241;24089;-82
2022/10/31 05:53:35;;;;;;;60.70;24.70;;;9.80;99.90;9.20;100728;;;;584132;241;24144;-83
2022/10/31 05:56:04;;;;;;;72.43;26.97;;;9.90;99.90;9.20;100729;;;;574919;245;24117;-79
2022/10/31 05:58:33;;;;;;;62.87;24.93;;;10.00;99.90;9.30;100743;;;;574268;245;24183;-83
2022/10/31 06:01:01;;;;;;;76.33;26.37;;;10.00;99.90;9.30;100742;;;;582272;240;24037;-83
2022/10/31 06:03:29;;;;;;;65.80;25.07;;;10.00;99.90;9.40;100743;;;;584831;241;24076;-83
2022/10/31 06:05:57;;;;;;;82.80;24.70;;;10.10;99.90;9.40;100751;;;;594078;241;24085;-81
2022/10/31 06:08:25;;;;;;;72.07;25.17;;;10.10;99.90;9.50;100748;;;;584909;241;24063;-82
2022/10/31 06:10:53;;;;;;;64.90;22.37;;;10.20;99.90;9.50;100749;;;;585003;241;24071;-84
2022/10/31 06:13:20;;;;;;;55.80;23.03;;;10.20;99.90;9.60;100754;;;;589211;241;24094;-81
2022/10/31 06:15:48;;;;;;;52.93;23.60;;;10.30;99.90;9.60;100759;;;;580261;241;24073;-80
2022/10/31 06:18:16;;;;;;;55.57;23.87;;;10.30;99.90;9.60;100755;;;;584908;241;24092;-83
2022/10/31 06:20:44;;;;;;;60.17;24.70;;;10.30;99.90;9.70;100755;;;;584809;241;24086;-82
2022/10/31 06:23:12;;;;;;;49.27;22.77;;;10.40;99.90;9.70;100755;;;;585546;241;24084;-81
2022/10/31 06:25:40;;;;;;;50.20;22.27;;;10.40;99.90;9.80;100750;;;;584973;241;24068;-80
2022/10/31 06:28:11;;;;;;;54.23;23.73;;;10.50;99.90;9.80;100755;;;;585004;241;24090;-83
2022/10/31 06:30:37;;;;;;;61.97;25.53;;;10.60;99.90;9.90;100752;;;;576928;245;24126;-81
2022/10/31 06:33:05;;;;;;;54.40;21.87;;;10.60;99.90;9.90;100753;;;;574618;245;24139;-80
2022/10/31 06:35:33;;;;;;;51.97;23.53;;;10.60;99.90;10.00;100750;;;;575713;245;24098;-84
2022/10/31 06:38:01;;;;;;;57.87;24.43;;;10.70;99.90;10.10;100745;;;;575692;245;24096;-82
2022/10/31 06:40:29;;;;;;;48.87;22.43;;;10.80;99.90;10.10;100754;;;;575386;245;25110;-82
2022/10/31 06:43:03;;;;;;;55.27;22.23;;;10.80;99.90;10.10;100748;;;;575278;245;24144;-80
2022/10/31 06:45:27;;;;;;;53.80;22.67;;;10.80;99.90;10.10;100762;;;;580174;245;24146;-81
2022/10/31 06:47:55;;;;;;;54.07;21.60;;;10.80;99.90;10.20;100760;;;;575193;245;24086;-81
2022/10/31 06:50:23;;;;;;;60.67;21.67;;;10.90;99.90;10.30;100763;;;;583729;244;24085;-81
2022/10/31 06:52:51;;;;;;;55.83;21.70;;;11.00;99.90;10.40;100763;;;;584343;243;24062;-80
2022/10/31 06:55:24;;;;;;;50.43;21.53;;;11.10;99.90;10.40;100761;;;;580231;243;24064;-80
2022/10/31 06:57:54;;;;;;;51.17;21.10;;;11.10;99.90;10.50;100761;;;;580762;243;24099;-80
2022/10/31 07:00:25;;;;;;;53.90;23.87;;;11.30;99.90;10.60;100765;;;;582281;241;24124;-77
2022/10/31 07:03:03;;;;;;;51.27;22.57;;;11.40;99.90;10.70;100775;;;;574672;245;24110;-79
2022/10/31 07:05:30;;;;;;;51.20;23.03;;;11.30;99.90;10.70;100771;;;;573165;246;24119;-78
2022/10/31 07:07:58;;;;;;;60.00;24.47;;;11.40;99.90;10.70;100776;;;;591168;241;24092;-79
2022/10/31 07:10:26;;;;;;;59.47;23.77;;;11.40;99.90;10.80;100781;;;;583665;241;24088;-79
2022/10/31 07:13:00;;;;;;;60.90;23.40;;;11.50;99.90;10.80;100771;;;;585339;241;24050;-78
2022/10/31 07:15:28;;;;;;;60.33;23.80;;;11.50;99.90;10.90;100772;;;;583571;241;25154;-81
2022/10/31 07:18:05;;;;;;;62.87;25.27;;;11.60;99.90;11.00;100778;;;;583640;241;24091;-82
2022/10/31 07:20:33;;;;;;;52.93;23.87;;;11.70;99.90;11.10;100783;;;;583690;241;24082;-77
2022/10/31 07:23:04;;;;;;;67.57;25.57;;;11.70;99.90;11.10;100776;;;;583735;241;24102;-79
2022/10/31 07:25:32;;;;;;;55.23;23.77;;;11.80;99.90;11.20;100777;;;;583287;241;24104;-79
2022/10/31 07:27:57;;;;;;;62.27;24.90;;;11.90;99.90;11.30;100785;;;;584278;243;24095;-75
2022/10/31 07:30:25;;;;;;;64.07;24.23;;;11.90;99.90;11.30;100785;;;;581782;241;24065;-84
2022/10/31 07:32:53;;;;;;;69.03;26.30;;;12.00;99.90;11.40;100789;;;;582069;241;24043;-77
2022/10/31 07:35:21;;;;;;;54.47;25.70;;;12.10;99.90;11.50;100788;;;;583082;241;24059;-81
2022/10/31 07:37:48;;;;;;;57.97;24.80;;;12.20;99.90;11.60;100797;;;;585340;241;24093;-83
2022/10/31 07:40:16;;;;;;;54.37;24.13;;;12.30;99.90;11.70;100792;;;;580799;241;24024;-80
2022/10/31 07:42:47;;;;;;;55.77;27.03;;;12.30;99.90;11.80;100795;;;;582087;241;24040;-83
2022/10/31 07:45:15;;;;;;;53.87;26.77;;;12.40;99.90;11.80;100793;;;;578419;243;24044;-83
2022/10/31 07:47:49;;;;;;;56.30;24.10;;;12.60;99.90;11.90;100794;;;;581512;238;24075;-85
2022/10/31 07:50:17;;;;;;;55.13;25.70;;;12.60;99.90;12.00;100800;;;;584123;241;24063;-81
2022/10/31 07:52:45;;;;;;;52.67;24.90;;;12.60;99.90;12.10;100802;;;;576627;245;24071;-81
2022/10/31 07:55:13;;;;;;;53.33;24.53;;;12.70;99.90;12.10;100810;;;;583319;241;25076;-82
2022/10/31 07:57:41;;;;;;;52.77;24.53;;;12.80;99.90;12.20;100801;;;;581761;242;24098;-82
2022/10/31 08:00:09;;;;;;;50.30;22.80;;;12.80;99.90;12.20;100803;;;;582091;240;24120;-83
2022/10/31 08:02:37;;;;;;;42.87;23.77;;;12.90;99.90;12.30;100796;;;;584476;241;24061;-81
2022/10/31 08:05:09;;;;;;;53.10;24.00;;;12.90;99.90;12.40;100800;;;;584264;241;24077;-82
2022/10/31 08:07:33;;;;;;;44.93;22.10;;;13.10;99.90;12.40;100798;;;;583779;241;24116;-77
2022/10/31 08:10:02;;;;;;;50.63;23.87;;;13.00;99.90;12.30;100799;;;;584050;241;24038;-77
2022/10/31 08:12:30;;;;;;;47.73;23.40;;;13.00;99.90;12.40;100807;;;;584273;241;24039;-82
2022/10/31 08:14:59;;;;;;;51.83;26.07;;;13.10;99.90;12.40;100800;;;;583907;241;24128;-78
2022/10/31 08:17:29;;;;;;;48.93;24.77;;;13.10;99.90;12.50;100800;;;;584245;241;24064;-84
2022/10/31 08:19:56;;;;;;;46.00;22.93;;;13.10;99.90;12.60;100807;;;;583206;241;24085;-83
2022/10/31 08:22:23;;;;;;;52.57;25.70;;;13.20;99.90;12.70;100804;;;;580079;238;24031;-84
2022/10/31 08:24:52;;;;;;;47.23;23.87;;;13.40;99.90;12.70;100813;;;;593531;238;24060;-84
2022/10/31 08:27:21;;;;;;;47.60;25.73;;;13.50;99.90;12.80;100809;;;;590062;241;24064;-79
2022/10/31 08:29:50;;;;;;;48.97;24.57;;;13.50;99.90;12.80;100809;;;;570319;248;24087;-80
2022/10/31 08:32:17;;;;;;;61.20;28.10;;;13.50;99.90;12.80;100815;;;;580713;246;24186;-80
2022/10/31 08:34:45;;;;;;;50.10;24.87;;;13.50;99.90;12.90;100812;;;;582066;246;24071;-80
2022/10/31 08:37:19;;;;;;;54.03;25.77;;;13.50;99.90;12.90;100810;;;;581791;243;24067;-81
2022/10/31 08:39:41;;;;;;;48.10;25.07;;;13.60;99.90;13.00;100818;;;;570792;246;24104;-80
2022/10/31 08:42:09;;;;;;;55.47;26.87;;;13.60;99.90;13.10;100814;;;;580305;242;24131;-78
2022/10/31 08:44:37;;;;;;;41.97;25.17;;;13.70;99.90;13.10;100817;;;;574712;239;24091;-80
2022/10/31 08:47:05;;;;;;;46.77;24.40;;;13.80;99.90;13.10;100828;;;;583486;241;24063;-79
2022/10/31 08:49:33;;;;;;;45.20;23.97;;;13.80;99.90;13.20;100835;;;;582420;243;24039;-80
2022/10/31 08:52:01;;;;;;;45.40;24.20;;;13.90;99.90;13.20;100829;;;;585288;241;24082;-77
2022/10/31 08:54:29;;;;;;;45.57;24.83;;;13.90;99.90;13.30;100825;;;;583968;241;24112;-77
2022/10/31 08:56:57;;;;;;;45.57;23.27;;;14.00;99.90;13.40;100824;;;;584874;239;24059;-82
2022/10/31 08:59:25;;;;;;;40.43;21.67;;;14.10;99.90;13.50;100825;;;;586943;239;24008;-78
2022/10/31 09:01:52;;;;;;;35.50;21.63;;;14.20;99.90;13.60;100828;;;;589911;239;24022;-81
2022/10/31 09:04:20;;;;;;;37.73;22.13;;;14.30;99.90;13.70;100834;;;;590268;239;24044;-80
2022/10/31 09:06:49;;;;;;;38.97;20.83;;;14.40;99.90;13.70;100829;;;;589697;239;24064;-80
2022/10/31 09:09:17;;;;;;;45.25;29.10;;;14.40;99.90;13.70;100819;;;;584546;239;45933;-82
2022/10/31 09:11:45;;;;;;;34.53;23.13;;;14.40;99.90;13.80;100813;;;;589705;239;24121;-81
2022/10/31 09:14:13;;;;;;;39.70;25.40;;;14.50;99.90;13.70;100812;;;;589491;239;24067;-79
2022/10/31 09:16:41;;;;;;;47.23;24.40;;;14.50;99.90;13.70;100820;;;;589332;239;24022;-84
2022/10/31 09:19:09;;;;;;;46.67;25.63;;;14.40;99.90;13.50;100810;;;;589266;239;24041;-79
2022/10/31 09:21:37;;;;;;;40.43;24.63;;;14.30;99.90;13.50;100815;;;;589191;239;24094;-84
2022/10/31 09:24:05;;;;;;;49.07;25.17;;;14.30;99.90;13.50;100814;;;;589407;239;24052;-80
2022/10/31 09:26:33;;;;;;;43.70;24.30;;;14.30;99.90;13.50;100818;;;;589440;239;24045;-80
2022/10/31 09:29:01;;;;;;;45.43;27.33;;;14.30;99.90;13.60;100813;;;;585047;239;24042;-80
2022/10/31 09:31:28;;;;;;;53.07;26.17;;;14.40;99.90;13.70;100818;;;;586484;241;24083;-80
2022/10/31 09:33:56;;;;;;;42.60;24.53;;;14.40;99.90;13.70;100828;;;;583688;242;24157;-82
2022/10/31 09:36:24;;;;;;;44.93;25.47;;;14.40;99.90;13.70;100817;;;;583512;241;24061;-81
2022/10/31 09:38:52;;;;;;;40.63;24.13;;;14.40;99.90;13.60;100811;;;;583337;242;24097;-80
2022/10/31 09:41:26;;;;;;;43.83;26.00;;;14.40;99.90;13.50;100809;;;;583908;242;24071;-81
2022/10/31 09:44:03;;;;;;;52.40;25.60;;;14.30;99.90;13.60;100806;;;;583908;242;24044;-82
2022/10/31 09:46:36;;;;;;;45.90;26.03;;;14.30;99.90;13.60;100808;;;;583306;242;24075;-82
2022/10/31 09:49:13;;;;;;;44.57;26.23;;;14.40;99.90;13.70;100813;;;;583541;242;24090;-82
2022/10/31 09:51:41;;;;;;;49.13;24.57;;;14.40;99.90;13.80;100812;;;;583812;242;24063;-82
2022/10/31 09:54:18;;;;;;;47.40;25.53;;;14.50;99.90;13.80;100812;;;;583524;242;24113;-83
2022/10/31 09:56:49;;;;;;;43.90;25.93;;;14.60;99.90;13.80;100820;;;;583830;242;24103;-83
2022/10/31 09:59:14;;;;;;;47.97;24.27;;;14.50;99.90;13.80;100825;;;;583467;242;24080;-81
2022/10/31 10:01:50;;;;;;;44.50;23.53;;;14.60;99.90;13.90;100829;;;;582877;243;24058;-80
2022/10/31 10:04:56;;;;;;;50.53;24.60;;;14.60;99.90;13.90;100830;;;;581026;243;24130;-81
2022/10/31 10:08:00;;;;;;;49.10;25.10;;;14.60;99.90;14.00;100831;;;;577035;239;24150;-80
2022/10/31 10:10:49;;;;;;;45.23;25.87;;;14.70;99.90;14.00;100823;;;;573997;245;24096;-78
2022/10/31 10:13:29;;;;;;;43.43;23.53;;;14.70;99.90;14.00;100820;;;;581195;241;24078;-78
2022/10/31 10:16:37;;;;;;;44.93;25.53;;;14.70;99.90;14.00;100825;;;;584185;241;24053;-79
2022/10/31 10:19:26;;;;;;;42.43;23.17;;;14.70;99.90;14.00;100823;;;;580759;241;24063;-85
2022/10/31 10:22:24;;;;;;;40.10;23.43;;;14.70;99.90;14.00;100831;;;;583875;241;24073;-84
2022/10/31 10:25:13;;;;;;;45.73;23.33;;;14.70;99.90;14.00;100826;;;;583953;241;24057;-88
2022/10/31 10:28:12;;;;;;;39.10;22.20;;;14.70;99.90;14.00;100819;;;;586456;241;24093;-78
2022/10/31 10:30:42;;;;;;;47.22;30.37;;;14.70;99.90;14.10;100818;;;;578596;241;35414;-80
2022/10/31 10:33:22;;;;;;;46.93;26.07;;;14.80;99.90;14.10;100814;;;;583722;241;24073;-77
2022/10/31 10:35:52;;;;;;;47.00;25.07;;;14.80;99.90;14.20;100817;;;;583409;241;24120;-80
2022/10/31 10:38:29;;;;;;;44.40;23.67;;;14.80;99.90;14.20;100811;;;;583943;241;24038;-77
2022/10/31 10:40:57;;;;;;;43.80;24.03;;;14.90;99.90;14.30;100804;;;;583734;239;24044;-78
2022/10/31 10:43:35;;;;;;;49.23;25.13;;;15.00;99.90;14.40;100818;;;;588598;241;24208;-76
2022/10/31 10:49:30;;;;;;;47.97;24.40;;;15.10;99.90;14.40;100802;;;;583962;241;24053;-85
2022/10/31 10:52:10;;;;;;;44.77;23.37;;;15.10;99.90;14.40;100807;;;;581642;241;24045;-77
2022/10/31 10:54:38;;;;;;;48.33;24.87;;;15.00;99.90;14.40;100812;;;;580437;243;24116;-78
2022/10/31 10:57:46;;;;;;;55.03;32.57;;;15.10;99.90;14.40;100810;;;;575766;243;41157;-80
2022/10/31 11:00:17;;;;;;;52.78;33.30;;;15.00;99.90;14.50;100810;;;;575880;243;35116;-80
2022/10/31 11:02:45;;;;;;;42.13;25.73;;;15.10;99.90;14.50;100810;;;;577419;243;24074;-77
2022/10/31 11:05:31;;;;;;;41.00;24.27;;;15.20;99.90;14.50;100811;;;;580859;243;24036;-86
2022/10/31 11:07:59;;;;;;;45.83;24.33;;;15.30;99.90;14.60;100815;;;;580650;243;24069;-84
2022/10/31 11:10:27;;;;;;;48.03;24.77;;;15.30;99.90;14.70;100805;;;;580606;243;24062;-81
2022/10/31 11:13:10;;;;;;;47.37;24.83;;;15.40;99.90;14.80;100807;;;;580615;239;24188;-81
2022/10/31 11:15:38;;;;;;;55.07;24.40;;;15.40;99.90;14.80;100802;;;;581136;241;24094;-78
2022/10/31 11:18:06;;;;;;;47.37;24.33;;;15.50;99.90;14.80;100806;;;;591576;238;24055;-78
2022/10/31 11:20:34;;;;;;;41.07;24.03;;;15.50;99.90;14.80;100794;;;;603009;237;24081;-79